Pagina principale
METAR-TAF:

METAR-TAF

Aeroporti :

Grise Fiord, Nunavut, Canada

latitudine: 76-25N, longitudine: 082-54W, altezza: 45 m

Osservazione

Il bollettino è stato emesso 59 minuti fa, alle 13:00 UTC
Vento 2 kt da direzioni variabili
Temperature -6°C
Umidità 86%
Pressione 1011 hPa
Visibilità: 24.1 km
Poco nuvoloso ad un'altezza di 2800 ft
Nuvoloso ad un'altezza di 4400 ft
Nuvoloso ad un'altezza di 7000 ft

METAR: CWGZ 271300Z VRB02KT 15SM FEW028 BKN044 BKN070 M06/M08 A2984 RMK SC2SC5AC1 AC TR SLP112

Ora: 09:59 (13:59 UTC)


TAF: mancante

Osservazioni e previsioni meteorologiche di più di 4000 aeroporti (messaggi METAR e TAF).

Le stazioni disponibili sono rappresentate dai dischi gialli e rossi sulla carta.

Puntare il mouse per vedere il nome della stazione.

Clicca sopra per visualizzare le osservazioni e previsioni meteorologiche.

Per cambiare la mappa : fare clic sui pulsanti verdi con una croce nera per ingrandire, il pulsante verde con un trattino per diminuire, o sulla freccia verde per le mappe adiacenti.


METAR-TAF: